UAE1212 OLBA-OMDB
Flight info
| Callsign | UAE1212 |
|---|---|
| Flight time | 2h 44m |
| Altitude | 39000 |
| Route | LATEB DCT LOTAX DCT BASEM DCT ABBAS DCT SULAF DCT TAN DCT MODIK DCT RAPLU DCT PUSTO DCT SILBO DCT LOVEK DCT KODAV DCT ILMAP DCT ULDUR DCT SIDAD DCT DESLU DCT NANPI DCT ALNIN DCT IMDAT DCT DURSI DCT PEGET DCT EGMIT DCT LEVNA DCT ORSAR DCT GIBIB DCT EMOTA DCT VUTEB |
| Aircraft | A20N/M-SDE2E3FGHIRWXY/LB1 |
Departure
| Time | 2026-04-21 15:17 |
|---|---|
| Airport | Beirut Rafic Hariri International Airport (OLBA) |
Arrival
| Time | 2026-04-21 18:01 |
|---|---|
| Airport | Dubai International Airport (OMDB) |
| Time | Latitude | Longitude | Altitude | Speed | Heading |
|---|---|---|---|---|---|
| 2026-04-21 15:06 | 33.82261 | 35.49368 | 81 ft | 0 kts | 16° |
| 2026-04-21 15:10 | 33.82258 | 35.49367 | 87 ft | 1 kts | 15° |
| 2026-04-21 15:10 | 33.82250 | 35.49365 | 87 ft | 1 kts | 16° |
| 2026-04-21 15:10 | 33.82243 | 35.49362 | 81 ft | 1 kts | 16° |
| 2026-04-21 15:10 | 33.82235 | 35.49359 | 82 ft | 1 kts | 16° |
| 2026-04-21 15:11 | 33.82228 | 35.49357 | 88 ft | 1 kts | 16° |
| 2026-04-21 15:11 | 33.82220 | 35.49354 | 89 ft | 1 kts | 16° |
| 2026-04-21 15:11 | 33.82213 | 35.49352 | 82 ft | 1 kts | 15° |
| 2026-04-21 15:11 | 33.82205 | 35.49349 | 86 ft | 1 kts | 15° |
| 2026-04-21 15:12 | 33.82198 | 35.49347 | 83 ft | 2 kts | 19° |
| 2026-04-21 15:12 | 33.82189 | 35.49317 | 78 ft | 1 kts | 106° |
| 2026-04-21 15:14 | 33.82184 | 35.49334 | 77 ft | 10 kts | 110° |
| 2026-04-21 15:14 | 33.82119 | 35.49506 | 78 ft | 17 kts | 103° |
| 2026-04-21 15:14 | 33.82155 | 35.49580 | 83 ft | 17 kts | 42° |
| 2026-04-21 15:14 | 33.82253 | 35.49670 | 75 ft | 18 kts | 35° |
| 2026-04-21 15:15 | 33.82362 | 35.49761 | 82 ft | 20 kts | 35° |
| 2026-04-21 15:15 | 33.82479 | 35.49860 | 81 ft | 21 kts | 35° |
| 2026-04-21 15:15 | 33.82600 | 35.49964 | 80 ft | 22 kts | 35° |
| 2026-04-21 15:15 | 33.82718 | 35.50064 | 83 ft | 16 kts | 35° |
| 2026-04-21 15:16 | 33.82754 | 35.50155 | 80 ft | 13 kts | 115° |
| 2026-04-21 15:16 | 33.82702 | 35.50248 | 81 ft | 14 kts | 137° |
| 2026-04-21 15:16 | 33.82615 | 35.50247 | 81 ft | 14 kts | 208° |
| 2026-04-21 15:16 | 33.82524 | 35.50178 | 84 ft | 22 kts | 213° |
| 2026-04-21 15:17 | 33.82174 | 35.49905 | 74 ft | 100 kts | 212° |
| 2026-04-21 15:17 | 33.81404 | 35.49314 | 73 ft | 162 kts | 214° |
| 2026-04-21 15:17 | 33.80382 | 35.48450 | 366 ft | 191 kts | 223° |
| 2026-04-21 15:17 | 33.79478 | 35.47178 | 1001 ft | 207 kts | 238° |
| 2026-04-21 15:18 | 33.78857 | 35.45598 | 1776 ft | 210 kts | 252° |
| 2026-04-21 15:18 | 33.78411 | 35.43863 | 2448 ft | 226 kts | 253° |
| 2026-04-21 15:18 | 33.78263 | 35.41920 | 2942 ft | 246 kts | 280° |
| 2026-04-21 15:18 | 33.78983 | 35.40011 | 3568 ft | 260 kts | 310° |
| 2026-04-21 15:19 | 33.80458 | 35.38717 | 4429 ft | 265 kts | 339° |
| 2026-04-21 15:19 | 33.82262 | 35.38405 | 5264 ft | 271 kts | 6° |
| 2026-04-21 15:19 | 33.84049 | 35.39168 | 6159 ft | 275 kts | 34° |
| 2026-04-21 15:19 | 33.85508 | 35.40708 | 7003 ft | 280 kts | 44° |
| 2026-04-21 15:20 | 33.86921 | 35.42305 | 7838 ft | 282 kts | 39° |
| 2026-04-21 15:20 | 33.88464 | 35.43737 | 8683 ft | 284 kts | 33° |
| 2026-04-21 15:20 | 33.90163 | 35.45027 | 9563 ft | 286 kts | 28° |
| 2026-04-21 15:20 | 33.91898 | 35.46185 | 10320 ft | 292 kts | 26° |
| 2026-04-21 15:21 | 33.93768 | 35.47360 | 10612 ft | 314 kts | 25° |
| 2026-04-21 15:21 | 33.95794 | 35.48604 | 10867 ft | 336 kts | 25° |
| 2026-04-21 15:21 | 33.97876 | 35.49887 | 11486 ft | 342 kts | 25° |
| 2026-04-21 15:21 | 34.00005 | 35.51207 | 12234 ft | 346 kts | 25° |
| 2026-04-21 15:22 | 34.02121 | 35.52523 | 12946 ft | 351 kts | 25° |
| 2026-04-21 15:22 | 34.04314 | 35.53889 | 13680 ft | 355 kts | 25° |
| 2026-04-21 15:22 | 34.06455 | 35.55224 | 14307 ft | 359 kts | 25° |
| 2026-04-21 15:22 | 34.08677 | 35.56608 | 14987 ft | 362 kts | 25° |
| 2026-04-21 15:23 | 34.10930 | 35.58014 | 15640 ft | 365 kts | 25° |
| 2026-04-21 15:23 | 34.13190 | 35.59427 | 16270 ft | 369 kts | 25° |
| 2026-04-21 15:23 | 34.15474 | 35.60856 | 16918 ft | 372 kts | 25° |
| 2026-04-21 15:23 | 34.17765 | 35.62290 | 17541 ft | 376 kts | 25° |
| 2026-04-21 15:24 | 34.20129 | 35.63771 | 18174 ft | 380 kts | 25° |
| 2026-04-21 15:24 | 34.22448 | 35.65226 | 18733 ft | 383 kts | 25° |
| 2026-04-21 15:24 | 34.24624 | 35.67091 | 19304 ft | 390 kts | 42° |
| 2026-04-21 15:24 | 34.26284 | 35.69708 | 19837 ft | 398 kts | 59° |
| 2026-04-21 15:25 | 34.27258 | 35.72855 | 20364 ft | 406 kts | 77° |
| 2026-04-21 15:25 | 34.27456 | 35.76278 | 20865 ft | 413 kts | 94° |
| 2026-04-21 15:25 | 34.26856 | 35.79657 | 21355 ft | 418 kts | 110° |
| 2026-04-21 15:25 | 34.25642 | 35.82881 | 21842 ft | 423 kts | 117° |
| 2026-04-21 15:26 | 34.24230 | 35.86071 | 22350 ft | 427 kts | 118° |
| 2026-04-21 15:26 | 34.22848 | 35.89250 | 22832 ft | 431 kts | 116° |
| 2026-04-21 15:26 | 34.21509 | 35.92500 | 23333 ft | 435 kts | 115° |
| 2026-04-21 15:26 | 34.20209 | 35.95789 | 23756 ft | 439 kts | 114° |
| 2026-04-21 15:27 | 34.18924 | 35.99114 | 24152 ft | 443 kts | 114° |
| 2026-04-21 15:27 | 34.17617 | 36.02525 | 24556 ft | 446 kts | 114° |
| 2026-04-21 15:27 | 34.16305 | 36.05956 | 24959 ft | 449 kts | 114° |
| 2026-04-21 15:27 | 34.14995 | 36.09380 | 25340 ft | 452 kts | 114° |
| 2026-04-21 15:28 | 34.13675 | 36.12825 | 25712 ft | 456 kts | 114° |
| 2026-04-21 15:28 | 34.12557 | 36.15738 | 26041 ft | 458 kts | 114° |
| 2026-04-21 15:28 | 34.11360 | 36.18849 | 26337 ft | 461 kts | 114° |
| 2026-04-21 15:28 | 34.10006 | 36.22368 | 26695 ft | 464 kts | 115° |
| 2026-04-21 15:29 | 34.08653 | 36.25880 | 27047 ft | 467 kts | 115° |
| 2026-04-21 15:29 | 34.07269 | 36.29468 | 27396 ft | 470 kts | 115° |
| 2026-04-21 15:29 | 34.05888 | 36.33045 | 27743 ft | 473 kts | 115° |
| 2026-04-21 15:29 | 34.04574 | 36.36444 | 28056 ft | 476 kts | 115° |
| 2026-04-21 15:30 | 34.03171 | 36.40070 | 28379 ft | 478 kts | 115° |
| 2026-04-21 15:30 | 34.01818 | 36.43702 | 28685 ft | 481 kts | 113° |
| 2026-04-21 15:30 | 34.00508 | 36.47460 | 28989 ft | 483 kts | 112° |
| 2026-04-21 15:30 | 33.99225 | 36.51187 | 29247 ft | 486 kts | 112° |
| 2026-04-21 15:31 | 33.97927 | 36.54933 | 29529 ft | 489 kts | 113° |
| 2026-04-21 15:31 | 33.96592 | 36.58698 | 29814 ft | 491 kts | 114° |
| 2026-04-21 15:31 | 33.95188 | 36.62463 | 30085 ft | 493 kts | 115° |
| 2026-04-21 15:31 | 33.93747 | 36.66264 | 30306 ft | 496 kts | 115° |
| 2026-04-21 15:32 | 33.92318 | 36.70031 | 30514 ft | 499 kts | 115° |
| 2026-04-21 15:32 | 33.90872 | 36.73851 | 30717 ft | 502 kts | 115° |
| 2026-04-21 15:32 | 33.89433 | 36.77664 | 30944 ft | 505 kts | 115° |
| 2026-04-21 15:32 | 33.87961 | 36.81565 | 31187 ft | 507 kts | 115° |
| 2026-04-21 15:33 | 33.86512 | 36.85405 | 31449 ft | 508 kts | 115° |
| 2026-04-21 15:33 | 33.85059 | 36.89253 | 31717 ft | 510 kts | 115° |
| 2026-04-21 15:33 | 33.83657 | 36.92962 | 31956 ft | 511 kts | 115° |
| 2026-04-21 15:33 | 33.82179 | 36.96864 | 32202 ft | 512 kts | 115° |
| 2026-04-21 15:34 | 33.80687 | 37.00802 | 32464 ft | 513 kts | 115° |
| 2026-04-21 15:34 | 33.79212 | 37.04687 | 32735 ft | 514 kts | 115° |
| 2026-04-21 15:34 | 33.77715 | 37.08628 | 32963 ft | 516 kts | 116° |
| 2026-04-21 15:34 | 33.76216 | 37.12569 | 33193 ft | 517 kts | 116° |
| 2026-04-21 15:35 | 33.74723 | 37.16490 | 33446 ft | 518 kts | 116° |
| 2026-04-21 15:35 | 33.73232 | 37.20400 | 33653 ft | 519 kts | 116° |
| 2026-04-21 15:35 | 33.71743 | 37.24301 | 33889 ft | 520 kts | 116° |
| 2026-04-21 15:35 | 33.70286 | 37.28115 | 34087 ft | 520 kts | 116° |
| 2026-04-21 15:36 | 33.68774 | 37.32070 | 34319 ft | 520 kts | 116° |
| 2026-04-21 15:36 | 33.67271 | 37.35996 | 34544 ft | 520 kts | 116° |
| 2026-04-21 15:36 | 33.65850 | 37.39703 | 34760 ft | 519 kts | 116° |
| 2026-04-21 15:36 | 33.64324 | 37.43680 | 34978 ft | 519 kts | 117° |
| 2026-04-21 15:37 | 33.62811 | 37.47615 | 35201 ft | 518 kts | 117° |
| 2026-04-21 15:37 | 33.61309 | 37.51518 | 35397 ft | 518 kts | 117° |
| 2026-04-21 15:37 | 33.59783 | 37.55478 | 35597 ft | 517 kts | 117° |
| 2026-04-21 15:37 | 33.58292 | 37.59326 | 35797 ft | 516 kts | 119° |
| 2026-04-21 15:38 | 33.56420 | 37.63045 | 35964 ft | 510 kts | 131° |
| 2026-04-21 15:38 | 33.54056 | 37.66195 | 36107 ft | 502 kts | 144° |
| 2026-04-21 15:38 | 33.51330 | 37.68669 | 36245 ft | 492 kts | 156° |
| 2026-04-21 15:38 | 33.48355 | 37.70724 | 36388 ft | 493 kts | 152° |
| 2026-04-21 15:39 | 33.45679 | 37.73302 | 36545 ft | 503 kts | 140° |
| 2026-04-21 15:39 | 33.43409 | 37.76514 | 36678 ft | 511 kts | 128° |
| 2026-04-21 15:39 | 33.41668 | 37.80208 | 36800 ft | 517 kts | 116° |
| 2026-04-21 15:39 | 33.40510 | 37.84303 | 36911 ft | 520 kts | 103° |
| 2026-04-21 15:40 | 33.40009 | 37.88544 | 37011 ft | 522 kts | 91° |
| 2026-04-21 15:40 | 33.40173 | 37.92883 | 37110 ft | 520 kts | 79° |
| 2026-04-21 15:40 | 33.40996 | 37.97050 | 37208 ft | 516 kts | 67° |
| 2026-04-21 15:40 | 33.42404 | 38.01009 | 37312 ft | 513 kts | 61° |
| 2026-04-21 15:41 | 33.43756 | 38.04948 | 37421 ft | 517 kts | 69° |
| 2026-04-21 15:41 | 33.44684 | 38.09103 | 37538 ft | 520 kts | 77° |
| 2026-04-21 15:41 | 33.45234 | 38.13404 | 37654 ft | 522 kts | 82° |
| 2026-04-21 15:41 | 33.45556 | 38.17734 | 37762 ft | 522 kts | 85° |
| 2026-04-21 15:42 | 33.45799 | 38.22025 | 37870 ft | 523 kts | 85° |
| 2026-04-21 15:42 | 33.46045 | 38.26384 | 37968 ft | 523 kts | 85° |
| 2026-04-21 15:42 | 33.46531 | 38.34874 | 38176 ft | 524 kts | 85° |
| 2026-04-21 15:43 | 33.47026 | 38.43593 | 38369 ft | 524 kts | 85° |
| 2026-04-21 15:43 | 33.47516 | 38.52283 | 38551 ft | 524 kts | 85° |
| 2026-04-21 15:44 | 33.48002 | 38.61002 | 38702 ft | 524 kts | 85° |
| 2026-04-21 15:44 | 33.48085 | 38.69711 | 38827 ft | 524 kts | 93° |
| 2026-04-21 15:45 | 33.47745 | 38.78439 | 38944 ft | 524 kts | 93° |
| 2026-04-21 15:45 | 33.47417 | 38.87055 | 38964 ft | 524 kts | 93° |
| 2026-04-21 15:46 | 33.47073 | 38.95823 | 38965 ft | 524 kts | 93° |
| 2026-04-21 15:46 | 33.46739 | 39.04485 | 38963 ft | 524 kts | 92° |
| 2026-04-21 15:47 | 33.46565 | 39.13247 | 38963 ft | 524 kts | 91° |
| 2026-04-21 15:47 | 33.46409 | 39.21946 | 38968 ft | 524 kts | 91° |
| 2026-04-21 15:48 | 33.46233 | 39.30346 | 38971 ft | 524 kts | 91° |
| 2026-04-21 15:48 | 33.46032 | 39.39128 | 38968 ft | 525 kts | 92° |
| 2026-04-21 15:49 | 33.45829 | 39.47725 | 38966 ft | 525 kts | 92° |
| 2026-04-21 15:49 | 33.45626 | 39.56169 | 38971 ft | 525 kts | 92° |
| 2026-04-21 15:50 | 33.45412 | 39.64817 | 38970 ft | 525 kts | 92° |
| 2026-04-21 15:50 | 33.45193 | 39.73439 | 38969 ft | 525 kts | 92° |
| 2026-04-21 15:51 | 33.44966 | 39.82157 | 38969 ft | 525 kts | 92° |
| 2026-04-21 15:51 | 33.44731 | 39.90944 | 38969 ft | 524 kts | 92° |
| 2026-04-21 15:52 | 33.44493 | 39.99625 | 38968 ft | 524 kts | 92° |
| 2026-04-21 15:52 | 33.44247 | 40.08341 | 38966 ft | 524 kts | 92° |
| 2026-04-21 15:53 | 33.43996 | 40.17022 | 38960 ft | 525 kts | 92° |
| 2026-04-21 15:53 | 33.43738 | 40.25724 | 38962 ft | 525 kts | 92° |
| 2026-04-21 15:54 | 33.43490 | 40.33948 | 38959 ft | 525 kts | 92° |
| 2026-04-21 15:54 | 33.43220 | 40.42651 | 38963 ft | 525 kts | 92° |
| 2026-04-21 15:55 | 33.42943 | 40.51409 | 38966 ft | 525 kts | 92° |
| 2026-04-21 15:55 | 33.42661 | 40.60130 | 38964 ft | 525 kts | 92° |
| 2026-04-21 15:56 | 33.42375 | 40.68783 | 38960 ft | 525 kts | 92° |
| 2026-04-21 15:56 | 33.42080 | 40.77520 | 38961 ft | 525 kts | 93° |
| 2026-04-21 15:57 | 33.41780 | 40.86207 | 38960 ft | 525 kts | 93° |
| 2026-04-21 15:57 | 33.41473 | 40.94959 | 38955 ft | 525 kts | 93° |
| 2026-04-21 15:58 | 33.41159 | 41.03701 | 38956 ft | 525 kts | 93° |
| 2026-04-21 15:58 | 33.40840 | 41.12420 | 38959 ft | 525 kts | 93° |
| 2026-04-21 15:59 | 33.40568 | 41.19712 | 38959 ft | 525 kts | 93° |
| 2026-04-21 15:59 | 33.40187 | 41.29773 | 38955 ft | 525 kts | 93° |
| 2026-04-21 16:00 | 33.39849 | 41.38503 | 38955 ft | 525 kts | 93° |
| 2026-04-21 16:00 | 33.39506 | 41.47202 | 38955 ft | 525 kts | 93° |
| 2026-04-21 16:01 | 33.39216 | 41.54462 | 38956 ft | 525 kts | 94° |
| 2026-04-21 16:01 | 33.38861 | 41.63195 | 38957 ft | 525 kts | 94° |
| 2026-04-21 16:02 | 33.38443 | 41.73333 | 38957 ft | 525 kts | 94° |
| 2026-04-21 16:02 | 33.38167 | 41.80595 | 38960 ft | 525 kts | 92° |
| 2026-04-21 16:03 | 33.37936 | 41.88691 | 38956 ft | 525 kts | 92° |
| 2026-04-21 16:03 | 33.37680 | 41.97400 | 38953 ft | 525 kts | 92° |
| 2026-04-21 16:04 | 33.37405 | 42.06123 | 38951 ft | 525 kts | 93° |
| 2026-04-21 16:04 | 33.37121 | 42.14870 | 38950 ft | 525 kts | 93° |
| 2026-04-21 16:05 | 33.36836 | 42.23413 | 38945 ft | 525 kts | 93° |
| 2026-04-21 16:05 | 33.36543 | 42.32073 | 38940 ft | 524 kts | 93° |
| 2026-04-21 16:06 | 33.36243 | 42.40779 | 38936 ft | 524 kts | 93° |
| 2026-04-21 16:06 | 33.35936 | 42.49507 | 38929 ft | 524 kts | 93° |
| 2026-04-21 16:07 | 33.35625 | 42.58174 | 38930 ft | 524 kts | 93° |
| 2026-04-21 16:07 | 33.35304 | 42.66917 | 38926 ft | 523 kts | 94° |
| 2026-04-21 16:08 | 33.34027 | 42.75381 | 38916 ft | 517 kts | 112° |
| 2026-04-21 16:08 | 33.32711 | 42.79361 | 38911 ft | 512 kts | 121° |
| 2026-04-21 16:09 | 33.29387 | 42.86258 | 38906 ft | 508 kts | 126° |
| 2026-04-21 16:09 | 33.25791 | 42.93517 | 38897 ft | 508 kts | 126° |
| 2026-04-21 16:10 | 33.22178 | 43.00799 | 38904 ft | 509 kts | 126° |
| 2026-04-21 16:10 | 33.18564 | 43.08047 | 38915 ft | 510 kts | 126° |
| 2026-04-21 16:11 | 33.14968 | 43.15238 | 38908 ft | 511 kts | 126° |
| 2026-04-21 16:11 | 33.11340 | 43.22479 | 38911 ft | 511 kts | 126° |
| 2026-04-21 16:12 | 33.07681 | 43.29768 | 38917 ft | 512 kts | 126° |
| 2026-04-21 16:12 | 33.04023 | 43.37042 | 38907 ft | 511 kts | 127° |
| 2026-04-21 16:13 | 33.00715 | 43.43607 | 38907 ft | 510 kts | 127° |
| 2026-04-21 16:13 | 32.97054 | 43.50851 | 38905 ft | 509 kts | 127° |
| 2026-04-21 16:14 | 32.93383 | 43.58015 | 38903 ft | 509 kts | 127° |
| 2026-04-21 16:14 | 32.89686 | 43.65216 | 38902 ft | 509 kts | 127° |
| 2026-04-21 16:15 | 32.85993 | 43.72402 | 38901 ft | 510 kts | 127° |
| 2026-04-21 16:15 | 32.82368 | 43.79444 | 38907 ft | 510 kts | 127° |
| 2026-04-21 16:16 | 32.78651 | 43.86652 | 38900 ft | 511 kts | 127° |
| 2026-04-21 16:16 | 32.74944 | 43.93826 | 38908 ft | 511 kts | 128° |
| 2026-04-21 16:17 | 32.71239 | 44.00983 | 38897 ft | 511 kts | 128° |
| 2026-04-21 16:17 | 32.67532 | 44.08131 | 38899 ft | 511 kts | 128° |
| 2026-04-21 16:18 | 32.63788 | 44.15335 | 38897 ft | 511 kts | 128° |
| 2026-04-21 16:18 | 32.60074 | 44.22468 | 38893 ft | 510 kts | 128° |
| 2026-04-21 16:19 | 32.56347 | 44.29614 | 38889 ft | 508 kts | 128° |
| 2026-04-21 16:19 | 32.52618 | 44.36746 | 38896 ft | 508 kts | 128° |
| 2026-04-21 16:20 | 32.48879 | 44.43887 | 38891 ft | 507 kts | 128° |
| 2026-04-21 16:20 | 32.45174 | 44.50947 | 38892 ft | 507 kts | 128° |
| 2026-04-21 16:21 | 32.41458 | 44.58016 | 38886 ft | 506 kts | 128° |
| 2026-04-21 16:21 | 32.37733 | 44.65089 | 38886 ft | 505 kts | 128° |
| 2026-04-21 16:22 | 32.34368 | 44.72467 | 38882 ft | 509 kts | 123° |
| 2026-04-21 16:22 | 32.31313 | 44.79523 | 38886 ft | 509 kts | 123° |
| 2026-04-21 16:23 | 32.28181 | 44.86715 | 38886 ft | 508 kts | 123° |
| 2026-04-21 16:23 | 32.24942 | 44.94135 | 38889 ft | 508 kts | 123° |
| 2026-04-21 16:24 | 32.21717 | 45.01503 | 38893 ft | 509 kts | 122° |
| 2026-04-21 16:24 | 32.18445 | 45.08957 | 38897 ft | 513 kts | 122° |
| 2026-04-21 16:25 | 32.15159 | 45.16442 | 38898 ft | 516 kts | 122° |
| 2026-04-21 16:25 | 32.11852 | 45.23958 | 38900 ft | 515 kts | 123° |
| 2026-04-21 16:26 | 32.08540 | 45.31469 | 38904 ft | 516 kts | 123° |
| 2026-04-21 16:26 | 32.05231 | 45.38956 | 38905 ft | 516 kts | 123° |
| 2026-04-21 16:27 | 32.01900 | 45.46478 | 38912 ft | 516 kts | 123° |
| 2026-04-21 16:27 | 31.98567 | 45.53987 | 38912 ft | 516 kts | 123° |
| 2026-04-21 16:28 | 31.95265 | 45.61413 | 38907 ft | 517 kts | 123° |
| 2026-04-21 16:28 | 31.92200 | 45.68291 | 38920 ft | 517 kts | 123° |
| 2026-04-21 16:29 | 31.88855 | 45.75783 | 38925 ft | 516 kts | 123° |
| 2026-04-21 16:29 | 31.85576 | 45.83114 | 38931 ft | 516 kts | 123° |
| 2026-04-21 16:30 | 31.82231 | 45.90579 | 38926 ft | 515 kts | 123° |
| 2026-04-21 16:30 | 31.78903 | 45.97988 | 38927 ft | 514 kts | 123° |
| 2026-04-21 16:31 | 31.75543 | 46.05453 | 38932 ft | 514 kts | 123° |
| 2026-04-21 16:31 | 31.72264 | 46.12849 | 38932 ft | 515 kts | 122° |
| 2026-04-21 16:32 | 31.69002 | 46.20340 | 38929 ft | 515 kts | 122° |
| 2026-04-21 16:32 | 31.65734 | 46.27802 | 38933 ft | 515 kts | 122° |
| 2026-04-21 16:33 | 31.62445 | 46.35284 | 38922 ft | 515 kts | 123° |
| 2026-04-21 16:33 | 31.59152 | 46.42756 | 38920 ft | 514 kts | 123° |
| 2026-04-21 16:34 | 31.55870 | 46.50187 | 38921 ft | 514 kts | 123° |
| 2026-04-21 16:34 | 31.52580 | 46.57620 | 38917 ft | 513 kts | 123° |
| 2026-04-21 16:35 | 31.49286 | 46.65048 | 38922 ft | 513 kts | 123° |
| 2026-04-21 16:35 | 31.46087 | 46.72249 | 38922 ft | 513 kts | 123° |
| 2026-04-21 16:36 | 31.42806 | 46.79620 | 38927 ft | 513 kts | 123° |
| 2026-04-21 16:36 | 31.39576 | 46.86860 | 38926 ft | 513 kts | 123° |
| 2026-04-21 16:37 | 31.35914 | 46.93930 | 38926 ft | 504 kts | 134° |
| 2026-04-21 16:37 | 31.31327 | 46.99964 | 38924 ft | 491 kts | 145° |
| 2026-04-21 16:38 | 31.26327 | 47.05228 | 38924 ft | 490 kts | 146° |
| 2026-04-21 16:38 | 31.21271 | 47.10602 | 38925 ft | 491 kts | 146° |
| 2026-04-21 16:39 | 31.16204 | 47.15978 | 38925 ft | 491 kts | 146° |
| 2026-04-21 16:39 | 31.11176 | 47.21297 | 38932 ft | 491 kts | 146° |
| 2026-04-21 16:40 | 31.06115 | 47.26642 | 38932 ft | 492 kts | 146° |
| 2026-04-21 16:40 | 31.01038 | 47.31997 | 38934 ft | 492 kts | 146° |
| 2026-04-21 16:41 | 30.96817 | 47.36443 | 38930 ft | 492 kts | 146° |
| 2026-04-21 16:41 | 30.90863 | 47.42705 | 38936 ft | 493 kts | 146° |
| 2026-04-21 16:42 | 30.85847 | 47.47971 | 38932 ft | 494 kts | 146° |
| 2026-04-21 16:42 | 30.80728 | 47.53334 | 38914 ft | 494 kts | 146° |
| 2026-04-21 16:43 | 30.75618 | 47.58675 | 38894 ft | 495 kts | 146° |
| 2026-04-21 16:43 | 30.70555 | 47.63960 | 38873 ft | 496 kts | 146° |
| 2026-04-21 16:44 | 30.65407 | 47.69326 | 38859 ft | 496 kts | 146° |
| 2026-04-21 16:44 | 30.60255 | 47.74688 | 38847 ft | 497 kts | 146° |
| 2026-04-21 16:45 | 30.55107 | 47.80039 | 38858 ft | 498 kts | 146° |
| 2026-04-21 16:45 | 30.49978 | 47.85361 | 38869 ft | 499 kts | 146° |
| 2026-04-21 16:46 | 30.44796 | 47.90731 | 38887 ft | 500 kts | 146° |
| 2026-04-21 16:46 | 30.39595 | 47.96112 | 38906 ft | 501 kts | 146° |
| 2026-04-21 16:47 | 30.34397 | 48.01482 | 38915 ft | 501 kts | 146° |
| 2026-04-21 16:47 | 30.29226 | 48.06816 | 38911 ft | 502 kts | 146° |
| 2026-04-21 16:48 | 30.24032 | 48.12167 | 38915 ft | 503 kts | 146° |
| 2026-04-21 16:48 | 30.18805 | 48.17543 | 38925 ft | 503 kts | 146° |
| 2026-04-21 16:49 | 30.13576 | 48.22914 | 38912 ft | 502 kts | 146° |
| 2026-04-21 16:49 | 30.08373 | 48.28252 | 38913 ft | 501 kts | 146° |
| 2026-04-21 16:50 | 30.03178 | 48.33570 | 38905 ft | 501 kts | 146° |
| 2026-04-21 16:50 | 29.97997 | 48.38868 | 38905 ft | 501 kts | 147° |
| 2026-04-21 16:51 | 29.92833 | 48.44140 | 38908 ft | 501 kts | 147° |
| 2026-04-21 16:51 | 29.87662 | 48.49493 | 38902 ft | 504 kts | 142° |
| 2026-04-21 16:52 | 29.83727 | 48.54522 | 38900 ft | 509 kts | 138° |
| 2026-04-21 16:52 | 29.79082 | 48.60661 | 38903 ft | 508 kts | 139° |
| 2026-04-21 16:53 | 29.74432 | 48.66773 | 38906 ft | 508 kts | 139° |
| 2026-04-21 16:53 | 29.69737 | 48.72931 | 38911 ft | 507 kts | 139° |
| 2026-04-21 16:54 | 29.65099 | 48.79003 | 38914 ft | 507 kts | 139° |
| 2026-04-21 16:54 | 29.60442 | 48.85093 | 38915 ft | 507 kts | 139° |
| 2026-04-21 16:55 | 29.55783 | 48.91175 | 38916 ft | 507 kts | 139° |
| 2026-04-21 16:55 | 29.51131 | 48.97238 | 38916 ft | 506 kts | 139° |
| 2026-04-21 16:56 | 29.46603 | 49.03132 | 38917 ft | 506 kts | 139° |
| 2026-04-21 16:56 | 29.41960 | 49.09216 | 38917 ft | 506 kts | 139° |
| 2026-04-21 16:57 | 29.37332 | 49.15299 | 38915 ft | 506 kts | 139° |
| 2026-04-21 16:57 | 29.32745 | 49.21311 | 38923 ft | 505 kts | 139° |
| 2026-04-21 16:58 | 29.28198 | 49.27258 | 38923 ft | 505 kts | 139° |
| 2026-04-21 16:58 | 29.23598 | 49.33264 | 38916 ft | 505 kts | 139° |
| 2026-04-21 16:59 | 29.18940 | 49.39338 | 38919 ft | 504 kts | 139° |
| 2026-04-21 16:59 | 29.14317 | 49.45358 | 38910 ft | 504 kts | 139° |
| 2026-04-21 17:00 | 29.09720 | 49.51335 | 38914 ft | 504 kts | 139° |
| 2026-04-21 17:00 | 29.05844 | 49.56290 | 38915 ft | 502 kts | 141° |
| 2026-04-21 17:01 | 29.00240 | 49.63071 | 38915 ft | 501 kts | 141° |
| 2026-04-21 17:01 | 28.95486 | 49.68831 | 38917 ft | 501 kts | 141° |
| 2026-04-21 17:02 | 28.90719 | 49.74630 | 38919 ft | 500 kts | 141° |
| 2026-04-21 17:02 | 28.85958 | 49.80420 | 38916 ft | 500 kts | 141° |
| 2026-04-21 17:03 | 28.81211 | 49.86186 | 38922 ft | 498 kts | 141° |
| 2026-04-21 17:03 | 28.76469 | 49.91935 | 38919 ft | 497 kts | 141° |
| 2026-04-21 17:04 | 28.71763 | 49.97630 | 38911 ft | 497 kts | 141° |
| 2026-04-21 17:04 | 28.67025 | 50.03359 | 38906 ft | 496 kts | 141° |
| 2026-04-21 17:05 | 28.62274 | 50.09095 | 38909 ft | 496 kts | 141° |
| 2026-04-21 17:05 | 28.57682 | 50.14631 | 38909 ft | 496 kts | 141° |
| 2026-04-21 17:06 | 28.52937 | 50.20317 | 38908 ft | 495 kts | 142° |
| 2026-04-21 17:06 | 28.48127 | 50.25936 | 38901 ft | 495 kts | 142° |
| 2026-04-21 17:07 | 28.43310 | 50.31556 | 38895 ft | 496 kts | 142° |
| 2026-04-21 17:07 | 28.38522 | 50.37149 | 38893 ft | 496 kts | 142° |
| 2026-04-21 17:08 | 28.33713 | 50.42763 | 38889 ft | 497 kts | 142° |
| 2026-04-21 17:08 | 28.28954 | 50.48311 | 38892 ft | 498 kts | 142° |
| 2026-04-21 17:09 | 28.21688 | 50.56766 | 38885 ft | 499 kts | 142° |
| 2026-04-21 17:09 | 28.16851 | 50.62384 | 38883 ft | 501 kts | 142° |
| 2026-04-21 17:10 | 28.11982 | 50.68032 | 38884 ft | 502 kts | 142° |
| 2026-04-21 17:10 | 28.07082 | 50.73709 | 38885 ft | 503 kts | 142° |
| 2026-04-21 17:11 | 28.02203 | 50.79353 | 38889 ft | 505 kts | 142° |
| 2026-04-21 17:11 | 27.97260 | 50.85063 | 38893 ft | 506 kts | 142° |
| 2026-04-21 17:12 | 27.92346 | 50.90734 | 38896 ft | 508 kts | 142° |
| 2026-04-21 17:12 | 27.87383 | 50.96452 | 38898 ft | 509 kts | 142° |
| 2026-04-21 17:13 | 27.82726 | 51.01812 | 38897 ft | 507 kts | 142° |
| 2026-04-21 17:13 | 27.77787 | 51.07486 | 38894 ft | 507 kts | 142° |
| 2026-04-21 17:14 | 27.72849 | 51.13151 | 38892 ft | 508 kts | 142° |
| 2026-04-21 17:14 | 27.68074 | 51.19053 | 38894 ft | 515 kts | 133° |
| 2026-04-21 17:15 | 27.64182 | 51.25707 | 38892 ft | 521 kts | 128° |
| 2026-04-21 17:15 | 27.60434 | 51.32410 | 38898 ft | 522 kts | 128° |
| 2026-04-21 17:16 | 27.56549 | 51.39320 | 38890 ft | 523 kts | 128° |
| 2026-04-21 17:16 | 27.52651 | 51.46242 | 38878 ft | 520 kts | 127° |
| 2026-04-21 17:17 | 27.48771 | 51.53116 | 38893 ft | 521 kts | 127° |
| 2026-04-21 17:17 | 27.44878 | 51.60008 | 38893 ft | 521 kts | 127° |
| 2026-04-21 17:18 | 27.40995 | 51.66870 | 38894 ft | 522 kts | 127° |
| 2026-04-21 17:18 | 27.37086 | 51.73769 | 38893 ft | 523 kts | 127° |
| 2026-04-21 17:19 | 27.33183 | 51.80647 | 38893 ft | 524 kts | 127° |
| 2026-04-21 17:19 | 27.29399 | 51.87303 | 38895 ft | 525 kts | 127° |
| 2026-04-21 17:20 | 27.25590 | 51.93995 | 38886 ft | 526 kts | 127° |
| 2026-04-21 17:20 | 27.21647 | 52.00912 | 38886 ft | 525 kts | 127° |
| 2026-04-21 17:21 | 27.17731 | 52.07765 | 38886 ft | 526 kts | 127° |
| 2026-04-21 17:21 | 27.13780 | 52.14657 | 38881 ft | 526 kts | 127° |
| 2026-04-21 17:22 | 27.09808 | 52.21576 | 38882 ft | 527 kts | 127° |
| 2026-04-21 17:22 | 27.05843 | 52.28473 | 38876 ft | 527 kts | 127° |
| 2026-04-21 17:23 | 27.01862 | 52.35380 | 38872 ft | 528 kts | 127° |
| 2026-04-21 17:23 | 26.97912 | 52.42223 | 38872 ft | 528 kts | 127° |
| 2026-04-21 17:24 | 26.93933 | 52.49106 | 38875 ft | 528 kts | 127° |
| 2026-04-21 17:24 | 26.89917 | 52.56043 | 38871 ft | 529 kts | 127° |
| 2026-04-21 17:25 | 26.85915 | 52.62944 | 38872 ft | 529 kts | 127° |
| 2026-04-21 17:25 | 26.81920 | 52.69824 | 38870 ft | 530 kts | 127° |
| 2026-04-21 17:26 | 26.77885 | 52.76761 | 38874 ft | 530 kts | 127° |
| 2026-04-21 17:26 | 26.73887 | 52.83623 | 38863 ft | 529 kts | 127° |
| 2026-04-21 17:27 | 26.70018 | 52.90254 | 38855 ft | 528 kts | 127° |
| 2026-04-21 17:27 | 26.66016 | 52.97103 | 38849 ft | 528 kts | 126° |
| 2026-04-21 17:28 | 26.61989 | 53.03986 | 38865 ft | 527 kts | 126° |
| 2026-04-21 17:28 | 26.57970 | 53.10844 | 38852 ft | 527 kts | 126° |
| 2026-04-21 17:29 | 26.53981 | 53.17637 | 38851 ft | 526 kts | 126° |
| 2026-04-21 17:29 | 26.50034 | 53.24331 | 38414 ft | 522 kts | 126° |
| 2026-04-21 17:30 | 26.48060 | 53.27676 | 37895 ft | 519 kts | 126° |
| 2026-04-21 17:30 | 26.46059 | 53.31065 | 37399 ft | 514 kts | 126° |
| 2026-04-21 17:30 | 26.44117 | 53.34353 | 36873 ft | 510 kts | 126° |
| 2026-04-21 17:30 | 26.42177 | 53.37633 | 36350 ft | 506 kts | 126° |
| 2026-04-21 17:31 | 26.40231 | 53.40921 | 35821 ft | 502 kts | 126° |
| 2026-04-21 17:31 | 26.38317 | 53.44154 | 35324 ft | 498 kts | 126° |
| 2026-04-21 17:31 | 26.36419 | 53.47357 | 34809 ft | 494 kts | 126° |
| 2026-04-21 17:31 | 26.34553 | 53.50504 | 34312 ft | 491 kts | 126° |
| 2026-04-21 17:32 | 26.33296 | 53.52622 | 33987 ft | 488 kts | 126° |
| 2026-04-21 17:32 | 26.31191 | 53.56167 | 33279 ft | 485 kts | 126° |
| 2026-04-21 17:32 | 26.29316 | 53.59321 | 32476 ft | 486 kts | 126° |
| 2026-04-21 17:32 | 26.27432 | 53.62483 | 31647 ft | 489 kts | 126° |
| 2026-04-21 17:33 | 26.25561 | 53.65620 | 30853 ft | 491 kts | 126° |
| 2026-04-21 17:33 | 26.23655 | 53.68816 | 30095 ft | 492 kts | 126° |
| 2026-04-21 17:33 | 26.21781 | 53.71957 | 29429 ft | 489 kts | 126° |
| 2026-04-21 17:33 | 26.19911 | 53.75090 | 28884 ft | 483 kts | 126° |
| 2026-04-21 17:34 | 26.18057 | 53.78193 | 28205 ft | 480 kts | 126° |
| 2026-04-21 17:34 | 26.16241 | 53.81231 | 27652 ft | 475 kts | 127° |
| 2026-04-21 17:34 | 26.14433 | 53.84255 | 27084 ft | 471 kts | 127° |
| 2026-04-21 17:34 | 26.12632 | 53.87262 | 26537 ft | 466 kts | 127° |
| 2026-04-21 17:35 | 26.10835 | 53.90264 | 25982 ft | 462 kts | 127° |
| 2026-04-21 17:35 | 26.09069 | 53.93210 | 25451 ft | 458 kts | 127° |
| 2026-04-21 17:35 | 26.07333 | 53.96191 | 24901 ft | 456 kts | 123° |
| 2026-04-21 17:35 | 26.05851 | 53.99277 | 24384 ft | 453 kts | 120° |
| 2026-04-21 17:36 | 26.04407 | 54.02335 | 23863 ft | 450 kts | 121° |
| 2026-04-21 17:36 | 26.02936 | 54.05437 | 23339 ft | 446 kts | 121° |
| 2026-04-21 17:36 | 26.01493 | 54.08471 | 22741 ft | 442 kts | 121° |
| 2026-04-21 17:36 | 26.00073 | 54.11453 | 22186 ft | 439 kts | 121° |
| 2026-04-21 17:37 | 25.98645 | 54.14450 | 21610 ft | 435 kts | 121° |
| 2026-04-21 17:37 | 25.97217 | 54.17445 | 21053 ft | 431 kts | 121° |
| 2026-04-21 17:37 | 25.96287 | 54.19393 | 20693 ft | 429 kts | 121° |
| 2026-04-21 17:37 | 25.94428 | 54.23289 | 19982 ft | 424 kts | 121° |
| 2026-04-21 17:38 | 25.93059 | 54.26154 | 19460 ft | 421 kts | 121° |
| 2026-04-21 17:38 | 25.91804 | 54.28933 | 18959 ft | 420 kts | 115° |
| 2026-04-21 17:38 | 25.90839 | 54.31850 | 18480 ft | 418 kts | 111° |
| 2026-04-21 17:38 | 25.89899 | 54.34873 | 17962 ft | 415 kts | 111° |
| 2026-04-21 17:39 | 25.88963 | 54.37856 | 17439 ft | 411 kts | 111° |
| 2026-04-21 17:39 | 25.87871 | 54.40728 | 16921 ft | 405 kts | 120° |
| 2026-04-21 17:39 | 25.86431 | 54.43394 | 16406 ft | 399 kts | 126° |
| 2026-04-21 17:39 | 25.84924 | 54.45950 | 15921 ft | 395 kts | 126° |
| 2026-04-21 17:40 | 25.83450 | 54.48468 | 15443 ft | 391 kts | 126° |
| 2026-04-21 17:40 | 25.81965 | 54.51014 | 15024 ft | 386 kts | 126° |
| 2026-04-21 17:40 | 25.80505 | 54.53515 | 14871 ft | 385 kts | 126° |
| 2026-04-21 17:40 | 25.79055 | 54.55995 | 14840 ft | 387 kts | 126° |
| 2026-04-21 17:41 | 25.77627 | 54.58437 | 14834 ft | 387 kts | 126° |
| 2026-04-21 17:41 | 25.76652 | 54.60103 | 14837 ft | 387 kts | 126° |
| 2026-04-21 17:41 | 25.75197 | 54.62589 | 14837 ft | 387 kts | 126° |
| 2026-04-21 17:41 | 25.73248 | 54.65917 | 14839 ft | 387 kts | 126° |
| 2026-04-21 17:42 | 25.71801 | 54.68388 | 14823 ft | 385 kts | 126° |
| 2026-04-21 17:42 | 25.70829 | 54.70047 | 14719 ft | 384 kts | 126° |
| 2026-04-21 17:42 | 25.68925 | 54.73295 | 14262 ft | 380 kts | 126° |
| 2026-04-21 17:42 | 25.67968 | 54.74927 | 13974 ft | 379 kts | 126° |
| 2026-04-21 17:43 | 25.66550 | 54.77342 | 13505 ft | 375 kts | 127° |
| 2026-04-21 17:43 | 25.65126 | 54.79767 | 13018 ft | 372 kts | 127° |
| 2026-04-21 17:43 | 25.63724 | 54.82152 | 12508 ft | 369 kts | 127° |
| 2026-04-21 17:43 | 25.62345 | 54.84496 | 12137 ft | 363 kts | 127° |
| 2026-04-21 17:44 | 25.61046 | 54.86904 | 12023 ft | 367 kts | 120° |
| 2026-04-21 17:44 | 25.60008 | 54.89522 | 11999 ft | 369 kts | 116° |
| 2026-04-21 17:44 | 25.59003 | 54.92129 | 11993 ft | 368 kts | 116° |
| 2026-04-21 17:44 | 25.58007 | 54.94696 | 11943 ft | 361 kts | 116° |
| 2026-04-21 17:45 | 25.57022 | 54.97227 | 11850 ft | 350 kts | 116° |
| 2026-04-21 17:45 | 25.56077 | 54.99656 | 11735 ft | 338 kts | 116° |
| 2026-04-21 17:45 | 25.55167 | 55.01991 | 11626 ft | 325 kts | 116° |
| 2026-04-21 17:45 | 25.54212 | 55.04210 | 11512 ft | 311 kts | 124° |
| 2026-04-21 17:46 | 25.53152 | 55.06229 | 11405 ft | 298 kts | 124° |
| 2026-04-21 17:46 | 25.52142 | 55.08168 | 11250 ft | 289 kts | 124° |
| 2026-04-21 17:46 | 25.51134 | 55.10108 | 10929 ft | 287 kts | 123° |
| 2026-04-21 17:46 | 25.50145 | 55.12010 | 10607 ft | 285 kts | 123° |
| 2026-04-21 17:47 | 25.49158 | 55.13911 | 10274 ft | 283 kts | 123° |
| 2026-04-21 17:47 | 25.48192 | 55.15772 | 10064 ft | 278 kts | 123° |
| 2026-04-21 17:47 | 25.47249 | 55.17584 | 10005 ft | 282 kts | 123° |
| 2026-04-21 17:47 | 25.46315 | 55.19357 | 9998 ft | 281 kts | 126° |
| 2026-04-21 17:48 | 25.45170 | 55.20998 | 9932 ft | 276 kts | 136° |
| 2026-04-21 17:48 | 25.43886 | 55.22544 | 9682 ft | 275 kts | 136° |
| 2026-04-21 17:48 | 25.42560 | 55.24159 | 9346 ft | 274 kts | 135° |
| 2026-04-21 17:48 | 25.41290 | 55.25716 | 8991 ft | 273 kts | 135° |
| 2026-04-21 17:49 | 25.40008 | 55.27292 | 8639 ft | 272 kts | 135° |
| 2026-04-21 17:49 | 25.38757 | 55.28831 | 8300 ft | 270 kts | 134° |
| 2026-04-21 17:49 | 25.37501 | 55.30373 | 8056 ft | 265 kts | 134° |
| 2026-04-21 17:49 | 25.36265 | 55.31876 | 8001 ft | 258 kts | 137° |
| 2026-04-21 17:50 | 25.34912 | 55.33079 | 7992 ft | 246 kts | 151° |
| 2026-04-21 17:50 | 25.33401 | 55.33975 | 7845 ft | 245 kts | 155° |
| 2026-04-21 17:50 | 25.31899 | 55.34838 | 7523 ft | 248 kts | 154° |
| 2026-04-21 17:50 | 25.30454 | 55.35679 | 7232 ft | 247 kts | 154° |
| 2026-04-21 17:51 | 25.28928 | 55.36573 | 6939 ft | 246 kts | 154° |
| 2026-04-21 17:51 | 25.27421 | 55.37459 | 6637 ft | 245 kts | 153° |
| 2026-04-21 17:51 | 25.25912 | 55.38345 | 6352 ft | 244 kts | 153° |
| 2026-04-21 17:51 | 25.24419 | 55.39219 | 6050 ft | 243 kts | 153° |
| 2026-04-21 17:52 | 25.22925 | 55.40093 | 5748 ft | 242 kts | 152° |
| 2026-04-21 17:52 | 25.21443 | 55.40960 | 5457 ft | 241 kts | 152° |
| 2026-04-21 17:52 | 25.19977 | 55.41818 | 5175 ft | 240 kts | 151° |
| 2026-04-21 17:52 | 25.18509 | 55.42676 | 5026 ft | 234 kts | 151° |
| 2026-04-21 17:53 | 25.17031 | 55.43539 | 5005 ft | 240 kts | 151° |
| 2026-04-21 17:53 | 25.15565 | 55.44397 | 4955 ft | 238 kts | 151° |
| 2026-04-21 17:53 | 25.14110 | 55.45248 | 4699 ft | 237 kts | 150° |
| 2026-04-21 17:53 | 25.12645 | 55.46106 | 4386 ft | 237 kts | 150° |
| 2026-04-21 17:54 | 25.11280 | 55.47081 | 4082 ft | 234 kts | 135° |
| 2026-04-21 17:54 | 25.10289 | 55.48511 | 3782 ft | 232 kts | 119° |
| 2026-04-21 17:54 | 25.09466 | 55.50043 | 3514 ft | 230 kts | 120° |
| 2026-04-21 17:54 | 25.08653 | 55.51521 | 3272 ft | 228 kts | 120° |
| 2026-04-21 17:55 | 25.07811 | 55.53027 | 3055 ft | 225 kts | 120° |
| 2026-04-21 17:55 | 25.07121 | 55.54526 | 3010 ft | 224 kts | 101° |
| 2026-04-21 17:55 | 25.07183 | 55.56195 | 3010 ft | 214 kts | 68° |
| 2026-04-21 17:55 | 25.08042 | 55.57452 | 3010 ft | 208 kts | 36° |
| 2026-04-21 17:56 | 25.09221 | 55.58262 | 3008 ft | 210 kts | 32° |
| 2026-04-21 17:56 | 25.10530 | 55.58951 | 3001 ft | 203 kts | 13° |
| 2026-04-21 17:56 | 25.11879 | 55.58859 | 2999 ft | 189 kts | 340° |
| 2026-04-21 17:56 | 25.12966 | 55.58106 | 3023 ft | 192 kts | 319° |
| 2026-04-21 17:57 | 25.13844 | 55.56986 | 3011 ft | 192 kts | 307° |
| 2026-04-21 17:57 | 25.14572 | 55.55764 | 3013 ft | 190 kts | 303° |
| 2026-04-21 17:57 | 25.15267 | 55.54523 | 2984 ft | 190 kts | 303° |
| 2026-04-21 17:57 | 25.15952 | 55.53288 | 2786 ft | 187 kts | 303° |
| 2026-04-21 17:58 | 25.16632 | 55.52062 | 2559 ft | 182 kts | 304° |
| 2026-04-21 17:58 | 25.17278 | 55.50892 | 2329 ft | 175 kts | 304° |
| 2026-04-21 17:58 | 25.17890 | 55.49785 | 2114 ft | 164 kts | 305° |
| 2026-04-21 17:58 | 25.18492 | 55.48700 | 1918 ft | 166 kts | 305° |
| 2026-04-21 17:59 | 25.19082 | 55.47633 | 1711 ft | 158 kts | 306° |
| 2026-04-21 17:59 | 25.19646 | 55.46613 | 1509 ft | 153 kts | 306° |
| 2026-04-21 17:59 | 25.20192 | 55.45626 | 1307 ft | 149 kts | 305° |
| 2026-04-21 17:59 | 25.20728 | 55.44647 | 1108 ft | 147 kts | 304° |
| 2026-04-21 18:00 | 25.21245 | 55.43704 | 954 ft | 144 kts | 304° |
| 2026-04-21 18:00 | 25.21769 | 55.42769 | 782 ft | 139 kts | 304° |
| 2026-04-21 18:00 | 25.22270 | 55.41873 | 594 ft | 136 kts | 303° |
| 2026-04-21 18:00 | 25.22759 | 55.40991 | 445 ft | 135 kts | 302° |
| 2026-04-21 18:01 | 25.23247 | 55.40097 | 211 ft | 134 kts | 302° |
| 2026-04-21 18:01 | 25.23715 | 55.39246 | 43 ft | 126 kts | 304° |
| 2026-04-21 18:01 | 25.24096 | 55.38580 | 19 ft | 78 kts | 301° |
| 2026-04-21 18:01 | 25.24270 | 55.38270 | 13 ft | 25 kts | 302° |
| 2026-04-21 18:02 | 25.24297 | 55.38222 | 13 ft | 15 kts | 302° |
| 2026-04-21 18:02 | 25.24427 | 55.37985 | 13 ft | 41 kts | 301° |
| 2026-04-21 18:02 | 25.24571 | 55.37725 | 11 ft | 39 kts | 303° |
| 2026-04-21 18:02 | 25.24702 | 55.37480 | 10 ft | 34 kts | 302° |
| 2026-04-21 18:03 | 25.24783 | 55.37238 | 11 ft | 33 kts | 279° |
| 2026-04-21 18:03 | 25.24788 | 55.37044 | 9 ft | 23 kts | 272° |
| 2026-04-21 18:03 | 25.24742 | 55.36941 | 9 ft | 15 kts | 216° |
| 2026-04-21 18:03 | 25.24645 | 55.36877 | 9 ft | 18 kts | 212° |
| 2026-04-21 18:04 | 25.24535 | 55.36800 | 10 ft | 20 kts | 212° |
| 2026-04-21 18:04 | 25.24421 | 55.36710 | 10 ft | 21 kts | 227° |
| 2026-04-21 18:04 | 25.24372 | 55.36557 | 9 ft | 22 kts | 265° |
| 2026-04-21 18:04 | 25.24416 | 55.36407 | 9 ft | 22 kts | 301° |
| 2026-04-21 18:05 | 25.24496 | 55.36294 | 9 ft | 13 kts | 341° |
| 2026-04-21 18:05 | 25.24565 | 55.36329 | 9 ft | 10 kts | 30° |
| 2026-04-21 18:05 | 25.24622 | 55.36367 | 11 ft | 8 kts | 31° |
| 2026-04-21 18:05 | 25.24631 | 55.36373 | 10 ft | 0 kts | 32° |